Aviation Digital Data Service (ADDS)

Output produced by METARs form (0840 UTC 24 March 2019)
found at http://www.aviationweather.gov/metar/data/
 
METAR text: ESGG 240820Z 26010KT 9999 BKN012 05/02 Q1022 R88/09//95
Conditions at: ESGG (GOTEBORG/LANDVET, SE) observed 0820 UTC 24 March 2019
Temperature: 5.0°C (41°F)
Dewpoint: 2.0°C (36°F) [RH = 81%]
Pressure (altimeter): 30.18 inches Hg (1022.0 mb)
Winds: from the W (260 degrees) at 12 MPH (10 knots; 5.1 m/s)
Visibility: 6 or more miles (10+ km)
Ceiling: 1200 feet AGL
Clouds: broken clouds at 1200 feet AGL
Weather: no significant weather observed at this time

METAR text: ESGG 240750Z 26011KT 9999 BKN011 04/02 Q1022 R88/09//95
Conditions at: ESGG (GOTEBORG/LANDVET, SE) observed 0750 UTC 24 March 2019
Temperature: 4.0°C (39°F)
Dewpoint: 2.0°C (36°F) [RH = 87%]
Pressure (altimeter): 30.18 inches Hg (1022.0 mb)
Winds: from the W (260 degrees) at 13 MPH (11 knots; 5.7 m/s)
Visibility: 6 or more miles (10+ km)
Ceiling: 1100 feet AGL
Clouds: broken clouds at 1100 feet AGL
Weather: no significant weather observed at this time

METAR text: ESGG 240720Z 26010KT 9999 BKN009 04/02 Q1022 R88/09//95
Conditions at: ESGG (GOTEBORG/LANDVET, SE) observed 0720 UTC 24 March 2019
Temperature: 4.0°C (39°F)
Dewpoint: 2.0°C (36°F) [RH = 87%]
Pressure (altimeter): 30.18 inches Hg (1022.0 mb)
Winds: from the W (260 degrees) at 12 MPH (10 knots; 5.1 m/s)
Visibility: 6 or more miles (10+ km)
Ceiling: 900 feet AGL
Clouds: broken clouds at 900 feet AGL
Weather: no significant weather observed at this time

METAR text: ESGG 240650Z 24008KT 9999 BKN009 03/02 Q1022 R88/09//95
Conditions at: ESGG (GOTEBORG/LANDVET, SE) observed 0650 UTC 24 March 2019
Temperature: 3.0°C (37°F)
Dewpoint: 2.0°C (36°F) [RH = 93%]
Pressure (altimeter): 30.18 inches Hg (1022.0 mb)
Winds: from the WSW (240 degrees) at 9 MPH (8 knots; 4.1 m/s)
Visibility: 6 or more miles (10+ km)
Ceiling: 900 feet AGL
Clouds: broken clouds at 900 feet AGL
Weather: no significant weather observed at this time

METAR text: ESGG 240620Z 24008KT 9999 BKN009 03/01 Q1022 R88/09//95
Conditions at: ESGG (GOTEBORG/LANDVET, SE) observed 0620 UTC 24 March 2019
Temperature: 3.0°C (37°F)
Dewpoint: 1.0°C (34°F) [RH = 87%]
Pressure (altimeter): 30.18 inches Hg (1022.0 mb)
Winds: from the WSW (240 degrees) at 9 MPH (8 knots; 4.1 m/s)
Visibility: 6 or more miles (10+ km)
Ceiling: 900 feet AGL
Clouds: broken clouds at 900 feet AGL
Weather: no significant weather observed at this time

METAR text: ESGG 240550Z 23007KT CAVOK 03/01 Q1022 R88/09//95
Conditions at: ESGG (GOTEBORG/LANDVET, SE) observed 0550 UTC 24 March 2019
Temperature: 3.0°C (37°F)
Dewpoint: 1.0°C (34°F) [RH = 87%]
Pressure (altimeter): 30.18 inches Hg (1022.0 mb)
Winds: from the SW (230 degrees) at 8 MPH (7 knots; 3.6 m/s)
Visibility: 6 or more miles (10+ km)
Ceiling: ceiling and visibility are OK
Clouds: unknown
Weather: no significant weather observed at this time

METAR text: ESGG 240520Z 25008KT CAVOK 02/01 Q1022 R88/09//95
Conditions at: ESGG (GOTEBORG/LANDVET, SE) observed 0520 UTC 24 March 2019
Temperature: 2.0°C (36°F)
Dewpoint: 1.0°C (34°F) [RH = 93%]
Pressure (altimeter): 30.18 inches Hg (1022.0 mb)
Winds: from the WSW (250 degrees) at 9 MPH (8 knots; 4.1 m/s)
Visibility: 6 or more miles (10+ km)
Ceiling: ceiling and visibility are OK
Clouds: unknown
Weather: no significant weather observed at this time

METAR text: ESGG 240450Z 26008KT CAVOK 03/01 Q1022 R88/09//95
Conditions at: ESGG (GOTEBORG/LANDVET, SE) observed 0450 UTC 24 March 2019
Temperature: 3.0°C (37°F)
Dewpoint: 1.0°C (34°F) [RH = 87%]
Pressure (altimeter): 30.18 inches Hg (1022.0 mb)
Winds: from the W (260 degrees) at 9 MPH (8 knots; 4.1 m/s)
Visibility: 6 or more miles (10+ km)
Ceiling: ceiling and visibility are OK
Clouds: unknown
Weather: no significant weather observed at this time

METAR text: ESGG 240420Z 26008KT 9999 FEW012 02/01 Q1022 R88/09//95
Conditions at: ESGG (GOTEBORG/LANDVET, SE) observed 0420 UTC 24 March 2019
Temperature: 2.0°C (36°F)
Dewpoint: 1.0°C (34°F) [RH = 93%]
Pressure (altimeter): 30.18 inches Hg (1022.0 mb)
Winds: from the W (260 degrees) at 9 MPH (8 knots; 4.1 m/s)
Visibility: 6 or more miles (10+ km)
Ceiling: at least 12,000 feet AGL
Clouds: few clouds at 1200 feet AGL
Weather: no significant weather observed at this time

METAR text: ESGG 240350Z 24008KT 9999 FEW012 02/00 Q1022 R88/09//95
Conditions at: ESGG (GOTEBORG/LANDVET, SE) observed 0350 UTC 24 March 2019
Temperature: 2.0°C (36°F)
Dewpoint: 0.0°C (32°F) [RH = 87%]
Pressure (altimeter): 30.18 inches Hg (1022.0 mb)
Winds: from the WSW (240 degrees) at 9 MPH (8 knots; 4.1 m/s)
Visibility: 6 or more miles (10+ km)
Ceiling: at least 12,000 feet AGL
Clouds: few clouds at 1200 feet AGL
Weather: no significant weather observed at this time

METAR text: ESGG 240320Z 26006KT 9999 FEW013 02/00 Q1023 R88/09//95
Conditions at: ESGG (GOTEBORG/LANDVET, SE) observed 0320 UTC 24 March 2019
Temperature: 2.0°C (36°F)
Dewpoint: 0.0°C (32°F) [RH = 87%]
Pressure (altimeter): 30.21 inches Hg (1023.0 mb)
Winds: from the W (260 degrees) at 7 MPH (6 knots; 3.1 m/s)
Visibility: 6 or more miles (10+ km)
Ceiling: at least 12,000 feet AGL
Clouds: few clouds at 1300 feet AGL
Weather: no significant weather observed at this time

METAR text: ESGG 240250Z 26008KT CAVOK 02/00 Q1023 R88/09//95
Conditions at: ESGG (GOTEBORG/LANDVET, SE) observed 0250 UTC 24 March 2019
Temperature: 2.0°C (36°F)
Dewpoint: 0.0°C (32°F) [RH = 87%]
Pressure (altimeter): 30.21 inches Hg (1023.0 mb)
Winds: from the W (260 degrees) at 9 MPH (8 knots; 4.1 m/s)
Visibility: 6 or more miles (10+ km)
Ceiling: ceiling and visibility are OK
Clouds: unknown
Weather: no significant weather observed at this time

METAR text: ESGG 240220Z 25009KT CAVOK 02/01 Q1023 R88/09//95
Conditions at: ESGG (GOTEBORG/LANDVET, SE) observed 0220 UTC 24 March 2019
Temperature: 2.0°C (36°F)
Dewpoint: 1.0°C (34°F) [RH = 93%]
Pressure (altimeter): 30.21 inches Hg (1023.0 mb)
Winds: from the WSW (250 degrees) at 10 MPH (9 knots; 4.6 m/s)
Visibility: 6 or more miles (10+ km)
Ceiling: ceiling and visibility are OK
Clouds: unknown
Weather: no significant weather observed at this time

METAR text: ESGG 240150Z 26010KT 9999 FEW012 03/01 Q1023 R88/09//95
Conditions at: ESGG (GOTEBORG/LANDVET, SE) observed 0150 UTC 24 March 2019
Temperature: 3.0°C (37°F)
Dewpoint: 1.0°C (34°F) [RH = 87%]
Pressure (altimeter): 30.21 inches Hg (1023.0 mb)
Winds: from the W (260 degrees) at 12 MPH (10 knots; 5.1 m/s)
Visibility: 6 or more miles (10+ km)
Ceiling: at least 12,000 feet AGL
Clouds: few clouds at 1200 feet AGL
Weather: no significant weather observed at this time

METAR text: ESGG 240120Z 24008KT 9999 FEW014 03/00 Q1023 R88/09//95
Conditions at: ESGG (GOTEBORG/LANDVET, SE) observed 0120 UTC 24 March 2019
Temperature: 3.0°C (37°F)
Dewpoint: 0.0°C (32°F) [RH = 81%]
Pressure (altimeter): 30.21 inches Hg (1023.0 mb)
Winds: from the WSW (240 degrees) at 9 MPH (8 knots; 4.1 m/s)
Visibility: 6 or more miles (10+ km)
Ceiling: at least 12,000 feet AGL
Clouds: few clouds at 1400 feet AGL
Weather: no significant weather observed at this time

METAR text: ESGG 240050Z 25009KT 9999 BKN012 03/01 Q1023 R88/09//95
Conditions at: ESGG (GOTEBORG/LANDVET, SE) observed 0050 UTC 24 March 2019
Temperature: 3.0°C (37°F)
Dewpoint: 1.0°C (34°F) [RH = 87%]
Pressure (altimeter): 30.21 inches Hg (1023.0 mb)
Winds: from the WSW (250 degrees) at 10 MPH (9 knots; 4.6 m/s)
Visibility: 6 or more miles (10+ km)
Ceiling: 1200 feet AGL
Clouds: broken clouds at 1200 feet AGL
Weather: no significant weather observed at this time

METAR text: ESGG 240020Z 26007KT 9999 OVC012 04/01 Q1023 R88/09//95
Conditions at: ESGG (GOTEBORG/LANDVET, SE) observed 0020 UTC 24 March 2019
Temperature: 4.0°C (39°F)
Dewpoint: 1.0°C (34°F) [RH = 81%]
Pressure (altimeter): 30.21 inches Hg (1023.0 mb)
Winds: from the W (260 degrees) at 8 MPH (7 knots; 3.6 m/s)
Visibility: 6 or more miles (10+ km)
Ceiling: 1200 feet AGL
Clouds: overcast cloud deck at 1200 feet AGL
Weather: no significant weather observed at this time

METAR text: ESGG 232350Z 25009KT 220V290 9999 BKN012 BKN016 04/01 Q1023 R88/09//95
Conditions at: ESGG (GOTEBORG/LANDVET, SE) observed 2350 UTC 23 March 2019
Temperature: 4.0°C (39°F)
Dewpoint: 1.0°C (34°F) [RH = 81%]
Pressure (altimeter): 30.21 inches Hg (1023.0 mb)
Winds: from the WSW (250 degrees) at 10 MPH (9 knots; 4.6 m/s)
Visibility: 6 or more miles (10+ km)
Ceiling: 1200 feet AGL
Clouds: broken clouds at 1200 feet AGL
broken clouds at 1600 feet AGL
Weather: no significant weather observed at this time

METAR text: ESGG 232320Z 25007KT 9999 BKN013 BKN016 03/01 Q1023 R88/09//95
Conditions at: ESGG (GOTEBORG/LANDVET, SE) observed 2320 UTC 23 March 2019
Temperature: 3.0°C (37°F)
Dewpoint: 1.0°C (34°F) [RH = 87%]
Pressure (altimeter): 30.21 inches Hg (1023.0 mb)
Winds: from the WSW (250 degrees) at 8 MPH (7 knots; 3.6 m/s)
Visibility: 6 or more miles (10+ km)
Ceiling: 1300 feet AGL
Clouds: broken clouds at 1300 feet AGL
broken clouds at 1600 feet AGL
Weather: no significant weather observed at this time

METAR text: ESGG 232250Z 26010KT 9999 BKN013 04/01 Q1023 R88/09//95
Conditions at: ESGG (GOTEBORG/LANDVET, SE) observed 2250 UTC 23 March 2019
Temperature: 4.0°C (39°F)
Dewpoint: 1.0°C (34°F) [RH = 81%]
Pressure (altimeter): 30.21 inches Hg (1023.0 mb)
Winds: from the W (260 degrees) at 12 MPH (10 knots; 5.1 m/s)
Visibility: 6 or more miles (10+ km)
Ceiling: 1300 feet AGL
Clouds: broken clouds at 1300 feet AGL
Weather: no significant weather observed at this time

METAR text: ESGG 232220Z 27012KT 9999 OVC013 04/01 Q1023 R88/09//95
Conditions at: ESGG (GOTEBORG/LANDVET, SE) observed 2220 UTC 23 March 2019
Temperature: 4.0°C (39°F)
Dewpoint: 1.0°C (34°F) [RH = 81%]
Pressure (altimeter): 30.21 inches Hg (1023.0 mb)
Winds: from the W (270 degrees) at 14 MPH (12 knots; 6.2 m/s)
Visibility: 6 or more miles (10+ km)
Ceiling: 1300 feet AGL
Clouds: overcast cloud deck at 1300 feet AGL
Weather: no significant weather observed at this time

METAR text: ESGG 232150Z 26012KT 9999 BKN016 04/01 Q1023 R21/19//95
Conditions at: ESGG (GOTEBORG/LANDVET, SE) observed 2150 UTC 23 March 2019
Temperature: 4.0°C (39°F)
Dewpoint: 1.0°C (34°F) [RH = 81%]
Pressure (altimeter): 30.21 inches Hg (1023.0 mb)
Winds: from the W (260 degrees) at 14 MPH (12 knots; 6.2 m/s)
Visibility: 6 or more miles (10+ km)
Ceiling: 1600 feet AGL
Clouds: broken clouds at 1600 feet AGL
Weather: no significant weather observed at this time

METAR text: ESGG 232120Z 26013G24KT 230V300 9999 SCT018 03/00 Q1023 R21/19//95
Conditions at: ESGG (GOTEBORG/LANDVET, SE) observed 2120 UTC 23 March 2019
Temperature: 3.0°C (37°F)
Dewpoint: 0.0°C (32°F) [RH = 81%]
Pressure (altimeter): 30.21 inches Hg (1023.0 mb)
Winds: from the W (260 degrees) at 15 MPH (13 knots; 6.7 m/s)
gusting to 28 MPH (24 knots; 12.3 m/s)
Visibility: 6 or more miles (10+ km)
Ceiling: at least 12,000 feet AGL
Clouds: scattered clouds at 1800 feet AGL
Weather: no significant weather observed at this time

METAR text: ESGG 232050Z 26014KT 9999 SCT016 04/01 Q1023 R21/19//95
Conditions at: ESGG (GOTEBORG/LANDVET, SE) observed 2050 UTC 23 March 2019
Temperature: 4.0°C (39°F)
Dewpoint: 1.0°C (34°F) [RH = 81%]
Pressure (altimeter): 30.21 inches Hg (1023.0 mb)
Winds: from the W (260 degrees) at 16 MPH (14 knots; 7.2 m/s)
Visibility: 6 or more miles (10+ km)
Ceiling: at least 12,000 feet AGL
Clouds: scattered clouds at 1600 feet AGL
Weather: no significant weather observed at this time

METAR text: ESGG 232020Z 26014G26KT 9999 BKN015 04/01 Q1023 R21/19//95
Conditions at: ESGG (GOTEBORG/LANDVET, SE) observed 2020 UTC 23 March 2019
Temperature: 4.0°C (39°F)
Dewpoint: 1.0°C (34°F) [RH = 81%]
Pressure (altimeter): 30.21 inches Hg (1023.0 mb)
Winds: from the W (260 degrees) at 16 MPH (14 knots; 7.2 m/s)
gusting to 30 MPH (26 knots; 13.4 m/s)
Visibility: 6 or more miles (10+ km)
Ceiling: 1500 feet AGL
Clouds: broken clouds at 1500 feet AGL
Weather: no significant weather observed at this time

METAR text: ESGG 231950Z 26016KT 9999 OVC016 04/01 Q1022 R21/19//95
Conditions at: ESGG (GOTEBORG/LANDVET, SE) observed 1950 UTC 23 March 2019
Temperature: 4.0°C (39°F)
Dewpoint: 1.0°C (34°F) [RH = 81%]
Pressure (altimeter): 30.18 inches Hg (1022.0 mb)
Winds: from the W (260 degrees) at 18 MPH (16 knots; 8.2 m/s)
Visibility: 6 or more miles (10+ km)
Ceiling: 1600 feet AGL
Clouds: overcast cloud deck at 1600 feet AGL
Weather: no significant weather observed at this time

METAR text: ESGG 231920Z 26016KT 9999 FEW018 04/01 Q1022 R21/19//95
Conditions at: ESGG (GOTEBORG/LANDVET, SE) observed 1920 UTC 23 March 2019
Temperature: 4.0°C (39°F)
Dewpoint: 1.0°C (34°F) [RH = 81%]
Pressure (altimeter): 30.18 inches Hg (1022.0 mb)
Winds: from the W (260 degrees) at 18 MPH (16 knots; 8.2 m/s)
Visibility: 6 or more miles (10+ km)
Ceiling: at least 12,000 feet AGL
Clouds: few clouds at 1800 feet AGL
Weather: no significant weather observed at this time

METAR text: ESGG 231850Z 25014KT 9999 FEW018 04/00 Q1022 R21/19//95
Conditions at: ESGG (GOTEBORG/LANDVET, SE) observed 1850 UTC 23 March 2019
Temperature: 4.0°C (39°F)
Dewpoint: 0.0°C (32°F) [RH = 75%]
Pressure (altimeter): 30.18 inches Hg (1022.0 mb)
Winds: from the WSW (250 degrees) at 16 MPH (14 knots; 7.2 m/s)
Visibility: 6 or more miles (10+ km)
Ceiling: at least 12,000 feet AGL
Clouds: few clouds at 1800 feet AGL
Weather: no significant weather observed at this time

METAR text: ESGG 231820Z 26016KT 9999 FEW018 04/00 Q1022 R21/19//95
Conditions at: ESGG (GOTEBORG/LANDVET, SE) observed 1820 UTC 23 March 2019
Temperature: 4.0°C (39°F)
Dewpoint: 0.0°C (32°F) [RH = 75%]
Pressure (altimeter): 30.18 inches Hg (1022.0 mb)
Winds: from the W (260 degrees) at 18 MPH (16 knots; 8.2 m/s)
Visibility: 6 or more miles (10+ km)
Ceiling: at least 12,000 feet AGL
Clouds: few clouds at 1800 feet AGL
Weather: no significant weather observed at this time

METAR text: ESGG 231750Z 26015G25KT 9999 FEW019 04/00 Q1022 R21/19//95
Conditions at: ESGG (GOTEBORG/LANDVET, SE) observed 1750 UTC 23 March 2019
Temperature: 4.0°C (39°F)
Dewpoint: 0.0°C (32°F) [RH = 75%]
Pressure (altimeter): 30.18 inches Hg (1022.0 mb)
Winds: from the W (260 degrees) at 17 MPH (15 knots; 7.7 m/s)
gusting to 29 MPH (25 knots; 12.9 m/s)
Visibility: 6 or more miles (10+ km)
Ceiling: at least 12,000 feet AGL
Clouds: few clouds at 1900 feet AGL
Weather: no significant weather observed at this time

METAR text: ESGG 231720Z 25017G28KT 9999 FEW021 04/M00 Q1021 R21/19//95
Conditions at: ESGG (GOTEBORG/LANDVET, SE) observed 1720 UTC 23 March 2019
Temperature: 4.0°C (39°F)
Dewpoint: 0.0°C (32°F) [RH = 75%]
Pressure (altimeter): 30.15 inches Hg (1021.0 mb)
Winds: from the WSW (250 degrees) at 20 MPH (17 knots; 8.7 m/s)
gusting to 32 MPH (28 knots; 14.4 m/s)
Visibility: 6 or more miles (10+ km)
Ceiling: at least 12,000 feet AGL
Clouds: few clouds at 2100 feet AGL
Weather: no significant weather observed at this time

METAR text: ESGG 231650Z 25017KT 9999 FEW023 05/M00 Q1021 R21/19//95
Conditions at: ESGG (GOTEBORG/LANDVET, SE) observed 1650 UTC 23 March 2019
Temperature: 5.0°C (41°F)
Dewpoint: 0.0°C (32°F) [RH = 70%]
Pressure (altimeter): 30.15 inches Hg (1021.0 mb)
Winds: from the WSW (250 degrees) at 20 MPH (17 knots; 8.7 m/s)
Visibility: 6 or more miles (10+ km)
Ceiling: at least 12,000 feet AGL
Clouds: few clouds at 2300 feet AGL
Weather: no significant weather observed at this time

METAR text: ESGG 231620Z 26018KT 9999 SCT027 05/M01 Q1022 R21/19//95
Conditions at: ESGG (GOTEBORG/LANDVET, SE) observed 1620 UTC 23 March 2019
Temperature: 5.0°C (41°F)
Dewpoint: -1.0°C (30°F) [RH = 65%]
Pressure (altimeter): 30.18 inches Hg (1022.0 mb)
Winds: from the W (260 degrees) at 21 MPH (18 knots; 9.3 m/s)
Visibility: 6 or more miles (10+ km)
Ceiling: at least 12,000 feet AGL
Clouds: scattered clouds at 2700 feet AGL
Weather: no significant weather observed at this time

METAR text: ESGG 231550Z 26018KT 9999 FEW032 06/M01 Q1022 R21/19//95
Conditions at: ESGG (GOTEBORG/LANDVET, SE) observed 1550 UTC 23 March 2019
Temperature: 6.0°C (43°F)
Dewpoint: -1.0°C (30°F) [RH = 61%]
Pressure (altimeter): 30.18 inches Hg (1022.0 mb)
Winds: from the W (260 degrees) at 21 MPH (18 knots; 9.3 m/s)
Visibility: 6 or more miles (10+ km)
Ceiling: at least 12,000 feet AGL
Clouds: few clouds at 3200 feet AGL
Weather: no significant weather observed at this time

METAR text: ESGG 231520Z 27018KT 9999 FEW029 06/M00 Q1022 R21/19//95
Conditions at: ESGG (GOTEBORG/LANDVET, SE) observed 1520 UTC 23 March 2019
Temperature: 6.0°C (43°F)
Dewpoint: 0.0°C (32°F) [RH = 65%]
Pressure (altimeter): 30.18 inches Hg (1022.0 mb)
Winds: from the W (270 degrees) at 21 MPH (18 knots; 9.3 m/s)
Visibility: 6 or more miles (10+ km)
Ceiling: at least 12,000 feet AGL
Clouds: few clouds at 2900 feet AGL
Weather: no significant weather observed at this time

METAR text: ESGG 231450Z 26019G30KT 9999 FEW028 06/M01 Q1022 R21/19//95
Conditions at: ESGG (GOTEBORG/LANDVET, SE) observed 1450 UTC 23 March 2019
Temperature: 6.0°C (43°F)
Dewpoint: -1.0°C (30°F) [RH = 61%]
Pressure (altimeter): 30.18 inches Hg (1022.0 mb)
Winds: from the W (260 degrees) at 22 MPH (19 knots; 9.8 m/s)
gusting to 34 MPH (30 knots; 15.4 m/s)
Visibility: 6 or more miles (10+ km)
Ceiling: at least 12,000 feet AGL
Clouds: few clouds at 2800 feet AGL
Weather: no significant weather observed at this time

METAR text: ESGG 231420Z 27019G30KT 9999 SCT027 06/00 Q1021 R21/19//95
Conditions at: ESGG (GOTEBORG/LANDVET, SE) observed 1420 UTC 23 March 2019
Temperature: 6.0°C (43°F)
Dewpoint: 0.0°C (32°F) [RH = 65%]
Pressure (altimeter): 30.15 inches Hg (1021.0 mb)
Winds: from the W (270 degrees) at 22 MPH (19 knots; 9.8 m/s)
gusting to 34 MPH (30 knots; 15.4 m/s)
Visibility: 6 or more miles (10+ km)
Ceiling: at least 12,000 feet AGL
Clouds: scattered clouds at 2700 feet AGL
Weather: no significant weather observed at this time

METAR text: ESGG 231350Z 26019G31KT 9999 SCT030 07/M00 Q1021 R21/19//95
Conditions at: ESGG (GOTEBORG/LANDVET, SE) observed 1350 UTC 23 March 2019
Temperature: 7.0°C (45°F)
Dewpoint: 0.0°C (32°F) [RH = 61%]
Pressure (altimeter): 30.15 inches Hg (1021.0 mb)
Winds: from the W (260 degrees) at 22 MPH (19 knots; 9.8 m/s)
gusting to 36 MPH (31 knots; 15.9 m/s)
Visibility: 6 or more miles (10+ km)
Ceiling: at least 12,000 feet AGL
Clouds: scattered clouds at 3000 feet AGL
Weather: no significant weather observed at this time

METAR text: ESGG 231320Z 27017G27KT 240V300 9999 SCT031 07/M00 Q1021 R21/19//95
Conditions at: ESGG (GOTEBORG/LANDVET, SE) observed 1320 UTC 23 March 2019
Temperature: 7.0°C (45°F)
Dewpoint: 0.0°C (32°F) [RH = 61%]
Pressure (altimeter): 30.15 inches Hg (1021.0 mb)
Winds: from the W (270 degrees) at 20 MPH (17 knots; 8.7 m/s)
gusting to 31 MPH (27 knots; 13.9 m/s)
Visibility: 6 or more miles (10+ km)
Ceiling: at least 12,000 feet AGL
Clouds: scattered clouds at 3100 feet AGL
Weather: no significant weather observed at this time

METAR text: ESGG 231250Z 26018G30KT 9999 SCT028 07/M01 Q1021 R21/19//95
Conditions at: ESGG (GOTEBORG/LANDVET, SE) observed 1250 UTC 23 March 2019
Temperature: 7.0°C (45°F)
Dewpoint: -1.0°C (30°F) [RH = 57%]
Pressure (altimeter): 30.15 inches Hg (1021.0 mb)
Winds: from the W (260 degrees) at 21 MPH (18 knots; 9.3 m/s)
gusting to 34 MPH (30 knots; 15.4 m/s)
Visibility: 6 or more miles (10+ km)
Ceiling: at least 12,000 feet AGL
Clouds: scattered clouds at 2800 feet AGL
Weather: no significant weather observed at this time

METAR text: ESGG 231220Z 26018G28KT 9999 SCT029 06/M00 Q1021 R21/19//95
Conditions at: ESGG (GOTEBORG/LANDVET, SE) observed 1220 UTC 23 March 2019
Temperature: 6.0°C (43°F)
Dewpoint: 0.0°C (32°F) [RH = 65%]
Pressure (altimeter): 30.15 inches Hg (1021.0 mb)
Winds: from the W (260 degrees) at 21 MPH (18 knots; 9.3 m/s)
gusting to 32 MPH (28 knots; 14.4 m/s)
Visibility: 6 or more miles (10+ km)
Ceiling: at least 12,000 feet AGL
Clouds: scattered clouds at 2900 feet AGL
Weather: no significant weather observed at this time

METAR text: ESGG 231150Z 26017KT 9999 FEW031 07/M00 Q1021 R21/19//95
Conditions at: ESGG (GOTEBORG/LANDVET, SE) observed 1150 UTC 23 March 2019
Temperature: 7.0°C (45°F)
Dewpoint: 0.0°C (32°F) [RH = 61%]
Pressure (altimeter): 30.15 inches Hg (1021.0 mb)
Winds: from the W (260 degrees) at 20 MPH (17 knots; 8.7 m/s)
Visibility: 6 or more miles (10+ km)
Ceiling: at least 12,000 feet AGL
Clouds: few clouds at 3100 feet AGL
Weather: no significant weather observed at this time

METAR text: ESGG 231120Z 26016KT 240V300 9999 FEW030 07/00 Q1020 R21/19//95
Conditions at: ESGG (GOTEBORG/LANDVET, SE) observed 1120 UTC 23 March 2019
Temperature: 7.0°C (45°F)
Dewpoint: 0.0°C (32°F) [RH = 61%]
Pressure (altimeter): 30.12 inches Hg (1020.0 mb)
Winds: from the W (260 degrees) at 18 MPH (16 knots; 8.2 m/s)
Visibility: 6 or more miles (10+ km)
Ceiling: at least 12,000 feet AGL
Clouds: few clouds at 3000 feet AGL
Weather: no significant weather observed at this time

METAR text: ESGG 231050Z 26017KT 9999 FEW010 07/00 Q1020 R21/29//95
Conditions at: ESGG (GOTEBORG/LANDVET, SE) observed 1050 UTC 23 March 2019
Temperature: 7.0°C (45°F)
Dewpoint: 0.0°C (32°F) [RH = 61%]
Pressure (altimeter): 30.12 inches Hg (1020.0 mb)
Winds: from the W (260 degrees) at 20 MPH (17 knots; 8.7 m/s)
Visibility: 6 or more miles (10+ km)
Ceiling: at least 12,000 feet AGL
Clouds: few clouds at 1000 feet AGL
Weather: no significant weather observed at this time

METAR text: ESGG 231020Z 26017KT CAVOK 07/01 Q1020 R21/29//95
Conditions at: ESGG (GOTEBORG/LANDVET, SE) observed 1020 UTC 23 March 2019
Temperature: 7.0°C (45°F)
Dewpoint: 1.0°C (34°F) [RH = 66%]
Pressure (altimeter): 30.12 inches Hg (1020.0 mb)
Winds: from the W (260 degrees) at 20 MPH (17 knots; 8.7 m/s)
Visibility: 6 or more miles (10+ km)
Ceiling: ceiling and visibility are OK
Clouds: unknown
Weather: no significant weather observed at this time

METAR text: ESGG 230950Z 27014G24KT 9999 FEW011 07/02 Q1020 R21/29//95
Conditions at: ESGG (GOTEBORG/LANDVET, SE) observed 0950 UTC 23 March 2019
Temperature: 7.0°C (45°F)
Dewpoint: 2.0°C (36°F) [RH = 70%]
Pressure (altimeter): 30.12 inches Hg (1020.0 mb)
Winds: from the W (270 degrees) at 16 MPH (14 knots; 7.2 m/s)
gusting to 28 MPH (24 knots; 12.3 m/s)
Visibility: 6 or more miles (10+ km)
Ceiling: at least 12,000 feet AGL
Clouds: few clouds at 1100 feet AGL
Weather: no significant weather observed at this time

METAR text: ESGG 230920Z 26014KT 9999 FEW011 06/03 Q1019 R21/29//95
Conditions at: ESGG (GOTEBORG/LANDVET, SE) observed 0920 UTC 23 March 2019
Temperature: 6.0°C (43°F)
Dewpoint: 3.0°C (37°F) [RH = 81%]
Pressure (altimeter): 30.09 inches Hg (1019.0 mb)
Winds: from the W (260 degrees) at 16 MPH (14 knots; 7.2 m/s)
Visibility: 6 or more miles (10+ km)
Ceiling: at least 12,000 feet AGL
Clouds: few clouds at 1100 feet AGL
Weather: no significant weather observed at this time

METAR text: ESGG 230850Z 26013KT 9999 SCT009 06/04 Q1019 R21/29//95
Conditions at: ESGG (GOTEBORG/LANDVET, SE) observed 0850 UTC 23 March 2019
Temperature: 6.0°C (43°F)
Dewpoint: 4.0°C (39°F) [RH = 87%]
Pressure (altimeter): 30.09 inches Hg (1019.0 mb)
Winds: from the W (260 degrees) at 15 MPH (13 knots; 6.7 m/s)
Visibility: 6 or more miles (10+ km)
Ceiling: at least 12,000 feet AGL
Clouds: scattered clouds at 900 feet AGL
Weather: no significant weather observed at this time

METAR text: ESGG 230820Z 25013KT 9999 BKN006 05/04 Q1019 R21/29//95
Conditions at: ESGG (GOTEBORG/LANDVET, SE) observed 0820 UTC 23 March 2019
Temperature: 5.0°C (41°F)
Dewpoint: 4.0°C (39°F) [RH = 93%]
Pressure (altimeter): 30.09 inches Hg (1019.0 mb)
Winds: from the WSW (250 degrees) at 15 MPH (13 knots; 6.7 m/s)
Visibility: 6 or more miles (10+ km)
Ceiling: 600 feet AGL
Clouds: broken clouds at 600 feet AGL
Weather: no significant weather observed at this time

METAR text: ESGG 230750Z 25014KT 8000 BR OVC005 06/05 Q1019 R21/29//95
Conditions at: ESGG (GOTEBORG/LANDVET, SE) observed 0750 UTC 23 March 2019
Temperature: 6.0°C (43°F)
Dewpoint: 5.0°C (41°F) [RH = 93%]
Pressure (altimeter): 30.09 inches Hg (1019.0 mb)
Winds: from the WSW (250 degrees) at 16 MPH (14 knots; 7.2 m/s)
Visibility: 5 miles ( 8 km)
Ceiling: 500 feet AGL
Clouds: overcast cloud deck at 500 feet AGL
Weather: BR  (mist)

METAR text: ESGG 230720Z 25014KT 6000 BR OVC004 06/05 Q1019 R21/29//95
Conditions at: ESGG (GOTEBORG/LANDVET, SE) observed 0720 UTC 23 March 2019
Temperature: 6.0°C (43°F)
Dewpoint: 5.0°C (41°F) [RH = 93%]
Pressure (altimeter): 30.09 inches Hg (1019.0 mb)
Winds: from the WSW (250 degrees) at 16 MPH (14 knots; 7.2 m/s)
Visibility: 4 miles ( 6 km)
Ceiling: 400 feet AGL
Clouds: overcast cloud deck at 400 feet AGL
Weather: BR  (mist)

METAR text: ESGG 230650Z 24014KT 3500 BR VV003 06/05 Q1018 R21/29//95
Conditions at: ESGG (GOTEBORG/LANDVET, SE) observed 0650 UTC 23 March 2019
Temperature: 6.0°C (43°F)
Dewpoint: 5.0°C (41°F) [RH = 93%]
Pressure (altimeter): 30.06 inches Hg (1018.0 mb)
Winds: from the WSW (240 degrees) at 16 MPH (14 knots; 7.2 m/s)
Visibility: 2.17 miles (3.49 km)
Ceiling: indefinite ceiling with vertical visibility of 300 feet AGL
Clouds: obscured sky
Weather: BR  (mist)

METAR text: ESGG 230620Z 23014KT 1200 BR VV002 05/05 Q1018 R21/29//95
Conditions at: ESGG (GOTEBORG/LANDVET, SE) observed 0620 UTC 23 March 2019
Temperature: 5.0°C (41°F)
Dewpoint: 5.0°C (41°F) [RH = 100%]
Pressure (altimeter): 30.06 inches Hg (1018.0 mb)
Winds: from the SW (230 degrees) at 16 MPH (14 knots; 7.2 m/s)
Visibility: 0.75 miles (1.21 km)
Ceiling: indefinite ceiling with vertical visibility of 200 feet AGL
Clouds: obscured sky
Weather: BR  (mist)

METAR text: ESGG 230550Z 23015KT 1000 R03/P1500N R21/P1500N BR VV002 05/05 Q1018 REDZ R21/29//95
Conditions at: ESGG (GOTEBORG/LANDVET, SE) observed 0550 UTC 23 March 2019
Temperature: 5.0°C (41°F)
Dewpoint: 5.0°C (41°F) [RH = 100%]
Pressure (altimeter): 30.06 inches Hg (1018.0 mb)
Winds: from the SW (230 degrees) at 17 MPH (15 knots; 7.7 m/s)
Visibility: 0.62 miles (1.00 km)
Ceiling: indefinite ceiling with vertical visibility of 200 feet AGL
Clouds: obscured sky
Weather: BR  (mist)

METAR text: ESGG 230520Z 23013KT 1400 R03/P1500N R21/P1500N BR DZ VV002 05/05 Q1018 R21/29//95
Conditions at: ESGG (GOTEBORG/LANDVET, SE) observed 0520 UTC 23 March 2019
Temperature: 5.0°C (41°F)
Dewpoint: 5.0°C (41°F) [RH = 100%]
Pressure (altimeter): 30.06 inches Hg (1018.0 mb)
Winds: from the SW (230 degrees) at 15 MPH (13 knots; 6.7 m/s)
Visibility: 0.87 miles (1.40 km)
Ceiling: indefinite ceiling with vertical visibility of 200 feet AGL
Clouds: obscured sky
Weather: DZ BR  (moderate drizzle, mist)

METAR text: ESGG 230450Z 22014KT 1900 BR OVC003 05/04 Q1018 R21/29//95
Conditions at: ESGG (GOTEBORG/LANDVET, SE) observed 0450 UTC 23 March 2019
Temperature: 5.0°C (41°F)
Dewpoint: 4.0°C (39°F) [RH = 93%]
Pressure (altimeter): 30.06 inches Hg (1018.0 mb)
Winds: from the SW (220 degrees) at 16 MPH (14 knots; 7.2 m/s)
Visibility: 1.18 miles (1.90 km)
Ceiling: 300 feet AGL
Clouds: overcast cloud deck at 300 feet AGL
Weather: BR  (mist)

METAR text: ESGG 230420Z 23014KT 2200 BR OVC004 05/05 Q1018 R21/29//95
Conditions at: ESGG (GOTEBORG/LANDVET, SE) observed 0420 UTC 23 March 2019
Temperature: 5.0°C (41°F)
Dewpoint: 5.0°C (41°F) [RH = 100%]
Pressure (altimeter): 30.06 inches Hg (1018.0 mb)
Winds: from the SW (230 degrees) at 16 MPH (14 knots; 7.2 m/s)
Visibility: 1.37 miles (2.20 km)
Ceiling: 400 feet AGL
Clouds: overcast cloud deck at 400 feet AGL
Weather: BR  (mist)

METAR text: ESGG 230350Z 23016KT 2800 OVC004 05/05 Q1018 R21/29//95
Conditions at: ESGG (GOTEBORG/LANDVET, SE) observed 0350 UTC 23 March 2019
Temperature: 5.0°C (41°F)
Dewpoint: 5.0°C (41°F) [RH = 100%]
Pressure (altimeter): 30.06 inches Hg (1018.0 mb)
Winds: from the SW (230 degrees) at 18 MPH (16 knots; 8.2 m/s)
Visibility: 1.74 miles (2.80 km)
Ceiling: 400 feet AGL
Clouds: overcast cloud deck at 400 feet AGL
Weather: no significant weather observed at this time

METAR text: ESGG 230320Z 22016KT 2500 OVC003 05/05 Q1018 R21/29//95
Conditions at: ESGG (GOTEBORG/LANDVET, SE) observed 0320 UTC 23 March 2019
Temperature: 5.0°C (41°F)
Dewpoint: 5.0°C (41°F) [RH = 100%]
Pressure (altimeter): 30.06 inches Hg (1018.0 mb)
Winds: from the SW (220 degrees) at 18 MPH (16 knots; 8.2 m/s)
Visibility: 1.55 miles (2.49 km)
Ceiling: 300 feet AGL
Clouds: overcast cloud deck at 300 feet AGL
Weather: no significant weather observed at this time

METAR text: ESGG 230250Z 21015KT 0300 R03/0600D R21/P1500N FG VV002 05/05 Q1019 R21/29//95
Conditions at: ESGG (GOTEBORG/LANDVET, SE) observed 0250 UTC 23 March 2019
Temperature: 5.0°C (41°F)
Dewpoint: 5.0°C (41°F) [RH = 100%]
Pressure (altimeter): 30.09 inches Hg (1019.0 mb)
Winds: from the SSW (210 degrees) at 17 MPH (15 knots; 7.7 m/s)
Visibility: 0.19 miles (0.31 km)
Ceiling: indefinite ceiling with vertical visibility of 200 feet AGL
Clouds: obscured sky
Weather: FG  (fog)

METAR text: ESGG 230220Z 21016KT 0100 R03/0450N R21/0500N FG VV002 05/05 Q1019 R21/29//95
Conditions at: ESGG (GOTEBORG/LANDVET, SE) observed 0220 UTC 23 March 2019
Temperature: 5.0°C (41°F)
Dewpoint: 5.0°C (41°F) [RH = 100%]
Pressure (altimeter): 30.09 inches Hg (1019.0 mb)
Winds: from the SSW (210 degrees) at 18 MPH (16 knots; 8.2 m/s)
Visibility: 0.06 miles (0.10 km)
Ceiling: indefinite ceiling with vertical visibility of 200 feet AGL
Clouds: obscured sky
Weather: FG  (fog)

METAR text: ESGG 230150Z 21019KT 0150 R03/0600N R21/0650N FG VV002 05/05 Q1019 R21/29//95
Conditions at: ESGG (GOTEBORG/LANDVET, SE) observed 0150 UTC 23 March 2019
Temperature: 5.0°C (41°F)
Dewpoint: 5.0°C (41°F) [RH = 100%]
Pressure (altimeter): 30.09 inches Hg (1019.0 mb)
Winds: from the SSW (210 degrees) at 22 MPH (19 knots; 9.8 m/s)
Visibility: 0.09 miles (0.14 km)
Ceiling: indefinite ceiling with vertical visibility of 200 feet AGL
Clouds: obscured sky
Weather: FG  (fog)

METAR text: ESGG 230120Z 21019KT 0350 R03/0900N R21/1100D FG VV002 05/05 Q1019 R21/29//95
Conditions at: ESGG (GOTEBORG/LANDVET, SE) observed 0120 UTC 23 March 2019
Temperature: 5.0°C (41°F)
Dewpoint: 5.0°C (41°F) [RH = 100%]
Pressure (altimeter): 30.09 inches Hg (1019.0 mb)
Winds: from the SSW (210 degrees) at 22 MPH (19 knots; 9.8 m/s)
Visibility: 0.22 miles (0.35 km)
Ceiling: indefinite ceiling with vertical visibility of 200 feet AGL
Clouds: obscured sky
Weather: FG  (fog)

METAR text: ESGG 230050Z 20019KT 0350 R03/1000N R21/1200U FG VV003 05/05 Q1020 R21/29//95
Conditions at: ESGG (GOTEBORG/LANDVET, SE) observed 0050 UTC 23 March 2019
Temperature: 5.0°C (41°F)
Dewpoint: 5.0°C (41°F) [RH = 100%]
Pressure (altimeter): 30.12 inches Hg (1020.0 mb)
Winds: from the SSW (200 degrees) at 22 MPH (19 knots; 9.8 m/s)
Visibility: 0.22 miles (0.35 km)
Ceiling: indefinite ceiling with vertical visibility of 300 feet AGL
Clouds: obscured sky
Weather: FG  (fog)

METAR text: ESGG 230020Z 20018KT 0350 R03/0900N R21/1300N FG VV003 06/05 Q1020 R21/29//95
Conditions at: ESGG (GOTEBORG/LANDVET, SE) observed 0020 UTC 23 March 2019
Temperature: 6.0°C (43°F)
Dewpoint: 5.0°C (41°F) [RH = 93%]
Pressure (altimeter): 30.12 inches Hg (1020.0 mb)
Winds: from the SSW (200 degrees) at 21 MPH (18 knots; 9.3 m/s)
Visibility: 0.22 miles (0.35 km)
Ceiling: indefinite ceiling with vertical visibility of 300 feet AGL
Clouds: obscured sky
Weather: FG  (fog)

METAR text: ESGG 222350Z 21018KT 0350 R03/1000U R21/1300D FG VV004 06/05 Q1021 R21/29//95
Conditions at: ESGG (GOTEBORG/LANDVET, SE) observed 2350 UTC 22 March 2019
Temperature: 6.0°C (43°F)
Dewpoint: 5.0°C (41°F) [RH = 93%]
Pressure (altimeter): 30.15 inches Hg (1021.0 mb)
Winds: from the SSW (210 degrees) at 21 MPH (18 knots; 9.3 m/s)
Visibility: 0.22 miles (0.35 km)
Ceiling: indefinite ceiling with vertical visibility of 400 feet AGL
Clouds: obscured sky
Weather: FG  (fog)

METAR text: ESGG 222320Z 21018KT 0650 R03/P1500N R21/P1500N FG OVC002 06/05 Q1021 R21/29//95
Conditions at: ESGG (GOTEBORG/LANDVET, SE) observed 2320 UTC 22 March 2019
Temperature: 6.0°C (43°F)
Dewpoint: 5.0°C (41°F) [RH = 93%]
Pressure (altimeter): 30.15 inches Hg (1021.0 mb)
Winds: from the SSW (210 degrees) at 21 MPH (18 knots; 9.3 m/s)
Visibility: 0.40 miles (0.64 km)
Ceiling: 200 feet AGL
Clouds: overcast cloud deck at 200 feet AGL
Weather: FG  (fog)

METAR text: ESGG 222250Z 20016KT 2500 BR OVC002 06/05 Q1022 R21/29//95
Conditions at: ESGG (GOTEBORG/LANDVET, SE) observed 2250 UTC 22 March 2019
Temperature: 6.0°C (43°F)
Dewpoint: 5.0°C (41°F) [RH = 93%]
Pressure (altimeter): 30.18 inches Hg (1022.0 mb)
Winds: from the SSW (200 degrees) at 18 MPH (16 knots; 8.2 m/s)
Visibility: 1.55 miles (2.49 km)
Ceiling: 200 feet AGL
Clouds: overcast cloud deck at 200 feet AGL
Weather: BR  (mist)

METAR text: ESGG 222220Z 20017KT 2500 BR OVC002 05/05 Q1022 R21/29//95
Conditions at: ESGG (GOTEBORG/LANDVET, SE) observed 2220 UTC 22 March 2019
Temperature: 5.0°C (41°F)
Dewpoint: 5.0°C (41°F) [RH = 100%]
Pressure (altimeter): 30.18 inches Hg (1022.0 mb)
Winds: from the SSW (200 degrees) at 20 MPH (17 knots; 8.7 m/s)
Visibility: 1.55 miles (2.49 km)
Ceiling: 200 feet AGL
Clouds: overcast cloud deck at 200 feet AGL
Weather: BR  (mist)

METAR text: ESGG 222150Z 21018KT 2500 -DZ BKN003 05/05 Q1023 R21/29//95
Conditions at: ESGG (GOTEBORG/LANDVET, SE) observed 2150 UTC 22 March 2019
Temperature: 5.0°C (41°F)
Dewpoint: 5.0°C (41°F) [RH = 100%]
Pressure (altimeter): 30.21 inches Hg (1023.0 mb)
Winds: from the SSW (210 degrees) at 21 MPH (18 knots; 9.3 m/s)
Visibility: 1.55 miles (2.49 km)
Ceiling: 300 feet AGL
Clouds: broken clouds at 300 feet AGL
Weather: -DZ  (light drizzle)

METAR text: ESGG 222120Z 20017KT 2900 -DZ BKN003 05/04 Q1023 R21/19//95
Conditions at: ESGG (GOTEBORG/LANDVET, SE) observed 2120 UTC 22 March 2019
Temperature: 5.0°C (41°F)
Dewpoint: 4.0°C (39°F) [RH = 93%]
Pressure (altimeter): 30.21 inches Hg (1023.0 mb)
Winds: from the SSW (200 degrees) at 20 MPH (17 knots; 8.7 m/s)
Visibility: 1.80 miles (2.90 km)
Ceiling: 300 feet AGL
Clouds: broken clouds at 300 feet AGL
Weather: -DZ  (light drizzle)

METAR text: ESGG 222050Z 20019KT 3000 -DZ BKN003 05/04 Q1023 R21/19//95
Conditions at: ESGG (GOTEBORG/LANDVET, SE) observed 2050 UTC 22 March 2019
Temperature: 5.0°C (41°F)
Dewpoint: 4.0°C (39°F) [RH = 93%]
Pressure (altimeter): 30.21 inches Hg (1023.0 mb)
Winds: from the SSW (200 degrees) at 22 MPH (19 knots; 9.8 m/s)
Visibility: 1.86 miles (2.99 km)
Ceiling: 300 feet AGL
Clouds: broken clouds at 300 feet AGL
Weather: -DZ  (light drizzle)

Forecast for: AMD
Text: TAF AMD ESGG 240644Z 2406/2506 26013KT 9999 BKN009
Forecast period: 0600 to 0700 UTC 24 March 2019
Forecast type: FROM: standard forecast or significant change
Winds: from the W (260 degrees) at 15 MPH (13 knots; 6.7 m/s)
Visibility: 6 or more miles 10+ km)
Ceiling: 900 feet AGL
Clouds: broken clouds at 900 feet AGL
Weather: no significant weather forecast for this period
Text: BECMG 2407/2409 BKN015
Forecast period: 0700 UTC 24 March 2019 to 0600 UTC 25 March 2019
Forecast type: BECOMING: Conditions expected to become as follows by 0900 UTC 24 March 2019
Winds: from the W (260 degrees) at 15 MPH (13 knots; 6.7 m/s)
Visibility: 6 or more miles 10+ km)
Ceiling: 1500 feet AGL
Clouds: broken clouds at 1500 feet AGL
Weather: no significant weather forecast for this period
Text: PROB40 2414/2418 4000 -DZ BKN012
Forecast period: 1400 to 1800 UTC 24 March 2019
Forecast type: PROBABLE: 40 percent likelihood of the following during this time
Visibility: 2.49 miles (4.01 km)
Ceiling: 1200 feet AGL
Clouds: broken clouds at 1200 feet AGL
Weather: -DZ  (light drizzle)
Text: PROB40 2418/2506 4000 RA BKN006
Forecast period: 1800 UTC 24 March 2019 to 0600 UTC 25 March 2019
Forecast type: PROBABLE: 40 percent likelihood of the following during this time
Visibility: 2.49 miles (4.01 km)
Ceiling: 600 feet AGL
Clouds: broken clouds at 600 feet AGL
Weather: RA  (moderate rain)